Time;durP1;ratioP1;P1;durP2;ratioP2;P2;SDS_P1;SDS_P2;PMS_P1;PMS_P2;Temp;Humidity;BMP_temperature;BMP_pressure;BME280_temperature;BME280_humidity;BME280_pressure;Samples;Min_cycle;Max_cycle;Signal;HPM_P1;HPM_P2
2023/04/13 00:01:10;;;;;;;63.67;31.90;;;;;;;23.61;56.51;98513.22;4958700;28;20573;-57
2023/04/13 00:03:40;;;;;;;56.77;32.87;;;;;;;23.58;56.29;98511.91;4960103;28;20150;-57
2023/04/13 00:06:10;;;;;;;62.83;33.28;;;;;;;23.57;56.80;98509.47;4964384;28;20491;-59
2023/04/13 00:08:42;;;;;;;59.60;32.30;;;;;;;23.54;56.87;98516.25;4959957;28;20070;-58
2023/04/13 00:11:12;;;;;;;57.97;32.97;;;;;;;23.49;56.40;98510.06;4965435;28;20047;-59
2023/04/13 00:13:46;;;;;;;73.40;33.13;;;;;;;23.48;56.71;98519.25;4962875;28;20604;-59
2023/04/13 00:16:16;;;;;;;77.00;32.70;;;;;;;23.43;56.79;98524.66;4965224;28;20047;-58
2023/04/13 00:18:45;;;;;;;74.45;33.90;;;;;;;23.37;57.09;98523.88;4965150;28;20053;-59
2023/04/13 00:21:18;;;;;;;60.72;33.15;;;;;;;23.32;57.49;98528.53;4964811;28;20042;-59
2023/04/13 00:23:47;;;;;;;64.25;32.10;;;;;;;23.26;57.42;98533.16;4958486;28;20113;-59
2023/04/13 00:26:20;;;;;;;58.13;31.83;;;;;;;23.23;57.56;98531.78;4958394;28;20481;-61
2023/04/13 00:28:50;;;;;;;64.45;32.22;;;;;;;23.19;57.68;98535.34;4956586;28;20042;-58
2023/04/13 00:31:19;;;;;;;58.10;31.27;;;;;;;23.12;57.53;98538.34;4965208;28;20782;-57
2023/04/13 00:33:49;;;;;;;59.13;32.78;;;;;;;23.12;57.17;98542.94;4949631;28;20049;-58
2023/04/13 00:36:23;;;;;;;64.38;30.88;;;;;;;23.08;57.44;98536.47;4948675;28;20122;-59
2023/04/13 00:38:56;;;;;;;58.47;30.50;;;;;;;23.07;57.36;98535.66;4948770;28;20687;-57
2023/04/13 00:41:26;;;;;;;48.60;30.90;;;;;;;23.10;57.44;98545.91;4951303;28;20082;-58
2023/04/13 00:43:57;;;;;;;49.47;30.05;;;;;;;23.10;57.41;98547.81;4959082;28;20043;-58
2023/04/13 00:46:28;;;;;;;52.85;29.58;;;;;;;23.09;57.72;98552.41;4966887;28;20050;-58
2023/04/13 00:49:00;;;;;;;48.75;28.92;;;;;;;23.07;57.66;98546.47;4966474;28;20573;-59
2023/04/13 00:51:31;;;;;;;52.40;28.83;;;;;;;23.09;57.90;98548.91;4932977;28;20427;-57
2023/04/13 00:54:01;;;;;;;49.05;28.23;;;;;;;23.11;58.33;98550.22;4966371;28;20070;-58
2023/04/13 00:56:32;;;;;;;46.70;28.15;;;;;;;23.11;58.19;98552.94;4966469;28;20161;-59
2023/04/13 00:59:02;;;;;;;54.00;28.05;;;;;;;23.16;58.53;98554.81;4949368;28;20105;-59
2023/04/13 01:01:32;;;;;;;53.92;27.48;;;;;;;23.17;58.04;98559.13;4950569;28;20082;-61
2023/04/13 01:04:01;;;;;;;50.00;26.83;;;;;;;23.20;58.14;98561.25;4966886;28;20043;-58
2023/04/13 01:06:42;;;;;;;44.05;25.15;;;;;;;23.20;58.08;98563.97;4966608;28;20042;-58
2023/04/13 01:09:24;;;;;;;47.45;25.48;;;;;;;23.20;58.28;98566.66;4965823;28;20046;-58
2023/04/13 01:12:15;;;;;;;47.70;26.10;;;;;;;23.25;58.64;98563.94;4948531;28;20053;-56
2023/04/13 01:14:54;;;;;;;47.45;26.20;;;;;;;23.27;59.13;98570.72;4949415;28;20466;-59
2023/04/13 01:17:29;;;;;;;47.63;25.83;;;;;;;23.32;59.25;98569.06;4948734;28;20054;-57
2023/04/13 01:20:09;;;;;;;48.75;25.52;;;;;;;23.33;59.68;98567.97;4954140;28;20046;-59
2023/04/13 01:23:00;;;;;;;60.08;28.35;;;;;;;23.39;57.37;98574.97;4952966;28;20069;-59
2023/04/13 01:25:46;;;;;;;58.80;25.30;;;;;;;23.48;59.23;98567.91;4956555;28;20050;-59
2023/04/13 01:28:22;;;;;;;50.42;25.90;;;;;;;23.56;57.53;98568.13;4946046;28;20110;-60
2023/04/13 01:30:54;;;;;;;70.47;27.55;;;;;;;23.70;58.95;98571.84;4947047;28;20059;-59
2023/04/13 01:33:24;;;;;;;49.80;25.38;;;;;;;23.83;58.07;98567.69;4947425;28;20832;-59
2023/04/13 01:35:55;;;;;;;44.05;24.50;;;;;;;24.03;58.44;98572.16;4942661;28;20652;-59
2023/04/13 01:38:25;;;;;;;55.05;26.08;;;;;;;24.07;59.85;98575.91;4956148;28;20368;-60
2023/04/13 01:40:57;;;;;;;45.70;26.80;;;;;;;24.12;60.51;98568.53;4964641;28;20105;-59
2023/04/13 01:43:29;;;;;;;49.25;25.67;;;;;;;24.18;61.04;98574.75;4947610;28;20438;-59
2023/04/13 01:46:12;;;;;;;41.60;25.65;;;;;;;24.26;61.05;98581.44;4963065;28;20130;-60
2023/04/13 01:49:09;;;;;;;45.72;26.38;;;;;;;24.33;61.24;98577.34;4959353;28;20047;-58
2023/04/13 01:51:53;;;;;;;50.67;27.90;;;;;;;24.44;61.00;98583.44;4947891;28;20129;-57
2023/04/13 01:54:27;;;;;;;42.70;26.75;;;;;;;24.52;60.77;98572.78;4930965;28;20602;-58
2023/04/13 01:56:58;;;;;;;44.28;27.25;;;;;;;24.60;61.15;98585.75;4964257;28;20443;-59
2023/04/13 01:59:29;;;;;;;56.33;28.05;;;;;;;24.68;61.15;98587.00;4945331;28;20065;-59
2023/04/13 02:01:58;;;;;;;67.32;26.73;;;;;;;24.77;60.81;98590.69;4948258;28;20039;-56
2023/04/13 02:04:28;;;;;;;62.22;26.90;;;;;;;24.86;61.01;98589.00;4965201;28;20065;-58
2023/04/13 02:06:58;;;;;;;52.58;25.60;;;;;;;24.97;60.92;98590.50;4948599;28;20390;-58
2023/04/13 02:09:33;;;;;;;51.55;25.33;;;;;;;25.14;59.29;98594.66;4945701;28;20057;-59
2023/04/13 02:12:03;;;;;;;76.10;28.02;;;;;;;25.37;58.09;98597.31;4937864;28;20062;-59
2023/04/13 02:14:37;;;;;;;79.28;24.85;;;;;;;26.03;56.03;98601.03;4948293;28;20046;-60
2023/04/13 02:17:07;;;;;;;75.13;24.50;;;;;;;26.88;52.70;98600.69;4930053;28;20066;-60
2023/04/13 02:19:36;;;;;;;87.15;25.92;;;;;;;27.55;50.30;98599.06;4932720;28;20051;-58
2023/04/13 02:22:06;;;;;;;69.50;23.67;;;;;;;28.02;48.34;98601.25;4946779;28;20543;-58
2023/04/13 02:24:36;;;;;;;62.13;23.65;;;;;;;28.40;46.44;98609.91;4964461;28;20047;-60
2023/04/13 02:27:06;;;;;;;64.20;20.70;;;;;;;28.70;45.60;98608.31;4947575;28;20046;-58
2023/04/13 02:29:36;;;;;;;48.10;17.52;;;;;;;28.68;45.15;98609.75;4947692;28;20046;-58
2023/04/13 02:32:05;;;;;;;43.22;15.60;;;;;;;28.50;44.48;98611.56;4962850;28;20053;-58
2023/04/13 02:34:35;;;;;;;39.55;14.25;;;;;;;28.65;44.10;98616.59;4938005;29;20122;-59
2023/04/13 02:37:06;;;;;;;27.05;12.10;;;;;;;28.90;42.87;98620.63;4932011;29;20047;-59
2023/04/13 02:39:38;;;;;;;36.30;11.68;;;;;;;29.12;41.93;98615.06;4951471;28;20047;-58
2023/04/13 02:42:09;;;;;;;31.92;10.45;;;;;;;29.50;38.05;98620.03;4942394;28;20058;-58
2023/04/13 02:44:39;;;;;;;29.23;10.73;;;;;;;29.41;39.73;98620.81;4953768;28;20179;-60
2023/04/13 02:47:09;;;;;;;29.65;9.82;;;;;;;29.32;39.08;98614.53;4939230;28;20047;-59
2023/04/13 02:49:40;;;;;;;34.88;9.73;;;;;;;29.22;37.05;98617.50;4947037;28;20130;-59
2023/04/13 02:52:17;;;;;;;25.65;10.10;;;;;;;29.11;40.51;98620.84;4950205;28;20039;-60
2023/04/13 02:54:59;;;;;;;38.10;8.90;;;;;;;28.74;40.83;98616.69;4934092;29;20054;-62
2023/04/13 02:57:37;;;;;;;28.15;8.82;;;;;;;28.59;40.74;98621.38;4937877;28;20055;-57
2023/04/13 03:00:10;;;;;;;25.35;8.45;;;;;;;28.41;38.14;98622.38;4963687;28;20660;-60
2023/04/13 03:02:47;;;;;;;25.90;7.50;;;;;;;28.31;38.88;98621.84;4941836;29;20042;-60
2023/04/13 03:05:18;;;;;;;27.08;9.00;;;;;;;28.26;38.30;98627.41;4944124;28;20109;-58
2023/04/13 03:07:48;;;;;;;23.58;8.10;;;;;;;28.21;39.86;98627.53;4968809;28;20142;-60
2023/04/13 03:10:18;;;;;;;31.90;8.20;;;;;;;28.16;38.70;98630.38;4950911;28;20057;-60
2023/04/13 03:12:47;;;;;;;25.23;8.00;;;;;;;28.13;40.95;98631.81;4968725;28;20042;-60
2023/04/13 03:15:17;;;;;;;29.25;8.52;;;;;;;28.21;40.52;98633.78;4950856;28;20089;-60
2023/04/13 03:17:47;;;;;;;19.88;7.60;;;;;;;28.21;39.29;98643.88;4950559;28;20046;-61
2023/04/13 03:20:22;;;;;;;20.63;7.13;;;;;;;28.27;37.84;98631.75;4955985;28;20051;-59
2023/04/13 03:22:58;;;;;;;19.95;7.53;;;;;;;28.36;38.59;98635.34;4950079;28;20120;-59
2023/04/13 03:25:31;;;;;;;30.30;8.88;;;;;;;28.40;37.41;98634.41;4949613;28;20061;-58
2023/04/13 03:28:02;;;;;;;21.70;8.43;;;;;;;28.49;36.61;98624.38;4950383;28;20537;-59
2023/04/13 03:30:37;;;;;;;23.75;8.55;;;;;;;28.61;35.68;98631.16;4941965;28;20051;-61
2023/04/13 03:33:07;;;;;;;25.00;8.65;;;;;;;28.62;36.10;98635.50;4967622;28;20440;-59
2023/04/13 03:35:38;;;;;;;31.58;11.35;;;;;;;28.69;35.81;98644.03;4951033;28;20047;-59
2023/04/13 03:38:15;;;;;;;28.85;8.43;;;;;;;28.77;35.93;98638.66;4950612;28;20054;-59
2023/04/13 03:40:47;;;;;;;20.05;7.60;;;;;;;28.83;36.10;98642.06;4958919;28;20058;-61
2023/04/13 03:43:16;;;;;;;27.42;8.88;;;;;;;28.83;37.93;98645.59;4949711;28;20097;-63
2023/04/13 03:45:53;;;;;;;25.60;8.32;;;;;;;28.71;39.43;98639.94;4962412;28;20058;-59
2023/04/13 03:48:23;;;;;;;36.92;9.93;;;;;;;28.64;38.41;98647.69;4935043;28;20055;-62
2023/04/13 03:50:53;;;;;;;34.03;10.77;;;;;;;28.62;38.70;98644.50;4967631;28;20062;-61
2023/04/13 03:53:29;;;;;;;29.77;9.35;;;;;;;28.63;37.53;98650.75;4950341;28;20054;-62
2023/04/13 03:55:58;;;;;;;21.02;9.40;;;;;;;28.62;37.26;98654.59;4950615;28;20126;-60
2023/04/13 03:58:31;;;;;;;;;;;;;;;28.68;36.23;98651.41;4950879;28;20113;-61
2023/04/13 04:01:01;;;;;;;23.75;7.80;;;;;;;28.72;38.32;98652.44;4949665;28;19960;-56
2023/04/13 04:03:40;;;;;;;23.63;8.05;;;;;;;28.71;37.48;98663.66;4966894;28;20050;-61
2023/04/13 04:06:11;;;;;;;20.58;7.85;;;;;;;28.83;36.08;98655.69;4949465;28;20411;-60
2023/04/13 04:08:48;;;;;;;28.88;8.30;;;;;;;28.95;34.49;98653.19;4950362;28;20054;-60
2023/04/13 04:11:38;;;;;;;25.70;8.07;;;;;;;29.05;35.21;98644.72;4952397;28;20042;-61
2023/04/13 04:14:09;;;;;;;20.85;8.05;;;;;;;29.02;37.02;98648.09;4950478;28;20101;-61
2023/04/13 04:16:45;;;;;;;21.52;7.18;;;;;;;29.14;38.65;98653.75;4950585;28;20070;-62
2023/04/13 04:19:17;;;;;;;18.33;7.03;;;;;;;29.24;36.98;98650.75;4949640;28;20051;-61
2023/04/13 04:21:48;;;;;;;16.17;7.80;;;;;;;29.26;37.15;98651.22;4950204;28;20042;-61
2023/04/13 04:24:22;;;;;;;18.05;7.82;;;;;;;29.40;37.22;98654.69;4963484;28;20614;-61
2023/04/13 04:26:57;;;;;;;24.45;7.72;;;;;;;29.52;38.20;98650.56;4950304;28;20050;-60
2023/04/13 04:29:35;;;;;;;19.98;7.07;;;;;;;29.65;38.11;98647.66;4966813;28;20051;-60
2023/04/13 04:32:22;;;;;;;21.40;7.25;;;;;;;29.78;35.81;98643.22;4940877;28;20124;-60
2023/04/13 04:34:54;;;;;;;20.88;6.88;;;;;;;29.99;37.04;98646.16;4950074;28;20049;-61
2023/04/13 04:37:25;;;;;;;29.17;7.10;;;;;;;30.19;37.25;98651.75;4949401;28;20058;-61
2023/04/13 04:40:14;;;;;;;22.90;8.33;;;;;;;30.33;37.80;98649.66;4949097;28;20066;-60
2023/04/13 04:42:43;;;;;;;21.90;7.32;;;;;;;30.49;38.06;98646.47;4950117;28;20046;-61
2023/04/13 04:45:37;;;;;;;27.00;6.60;;;;;;;30.67;35.63;98642.59;4957129;28;20046;-60
2023/04/13 04:48:07;;;;;;;23.88;7.45;;;;;;;30.86;32.82;98650.38;4949345;28;20782;-61
2023/04/13 04:50:36;;;;;;;18.17;7.85;;;;;;;31.04;35.52;98644.56;4948812;28;20087;-61
2023/04/13 04:53:11;;;;;;;21.08;7.05;;;;;;;31.23;34.32;98641.44;4947835;28;20147;-60
2023/04/13 04:55:41;;;;;;;25.85;8.00;;;;;;;31.37;35.19;98643.94;4949817;28;20571;-63
2023/04/13 04:58:18;;;;;;;21.27;8.60;;;;;;;31.49;36.45;98641.28;4961001;28;20117;-62
2023/04/13 05:00:52;;;;;;;26.83;7.97;;;;;;;31.42;37.19;98641.84;4941835;28;20043;-62
2023/04/13 05:03:22;;;;;;;17.23;7.63;;;;;;;31.49;35.71;98636.63;4949024;28;20062;-61
2023/04/13 05:06:02;;;;;;;23.70;7.88;;;;;;;31.62;36.36;98641.09;4949217;28;20063;-61
2023/04/13 05:08:33;;;;;;;20.42;7.47;;;;;;;31.98;33.17;98640.50;4947849;28;20062;-63
2023/04/13 05:11:06;;;;;;;21.48;7.50;;;;;;;32.15;34.90;98642.34;4961373;28;20065;-63
2023/04/13 05:13:35;;;;;;;;;;;;;;;32.33;34.98;98646.53;4945709;28;20130;-61
2023/04/13 05:16:17;;;;;;;24.42;8.13;;;;;;;32.93;31.38;98645.91;4941025;28;19922;-62
2023/04/13 05:18:48;;;;;;;24.48;7.47;;;;;;;32.92;33.66;98638.03;4941287;28;20416;-63
2023/04/13 05:21:37;;;;;;;25.45;7.60;;;;;;;33.08;33.59;98640.91;4960986;28;20344;-61
2023/04/13 05:24:07;;;;;;;27.77;7.53;;;;;;;33.24;32.88;98639.91;4962247;28;20114;-62
2023/04/13 05:26:37;;;;;;;30.88;8.27;;;;;;;33.66;30.47;98637.75;4928733;28;20109;-62
2023/04/13 05:29:08;;;;;;;24.98;7.15;;;;;;;34.32;32.96;98642.84;4951782;28;20054;-61
2023/04/13 05:31:40;;;;;;;23.00;7.43;;;;;;;34.41;31.17;98649.00;4946223;28;20047;-62
2023/04/13 05:34:10;;;;;;;20.98;7.82;;;;;;;34.40;28.17;98644.66;4961692;28;20192;-62
2023/04/13 05:36:47;;;;;;;33.95;8.38;;;;;;;34.59;29.87;98641.25;4945988;28;20411;-62
2023/04/13 05:39:16;;;;;;;26.88;7.03;;;;;;;34.46;31.79;98643.25;4960374;28;20395;-62
2023/04/13 05:41:46;;;;;;;21.58;7.57;;;;;;;34.41;27.44;98643.50;4945705;28;20145;-61
2023/04/13 05:44:17;;;;;;;28.92;7.50;;;;;;;34.50;32.86;98646.91;4944837;28;20141;-62
2023/04/13 05:46:52;;;;;;;35.58;7.63;;;;;;;34.75;34.56;98644.03;4946909;28;20050;-63
2023/04/13 05:49:21;;;;;;;27.42;8.40;;;;;;;34.77;28.74;98644.50;4947979;28;20051;-61
2023/04/13 05:51:53;;;;;;;17.15;6.15;;;;;;;34.94;26.51;98633.94;4945874;28;20057;-61
2023/04/13 05:54:33;;;;;;;19.35;7.50;;;;;;;35.00;28.48;98637.25;4939860;28;20448;-63
2023/04/13 05:57:02;;;;;;;32.17;6.93;;;;;;;34.81;29.18;98628.88;4943074;28;20042;-61
2023/04/13 05:59:32;;;;;;;20.52;6.88;;;;;;;34.81;30.65;98629.69;4943803;28;20051;-63
2023/04/13 06:02:03;;;;;;;22.50;6.43;;;;;;;34.67;30.55;98632.84;4963374;28;20046;-62
2023/04/13 06:04:33;;;;;;;29.25;8.57;;;;;;;34.49;28.97;98639.78;4964442;28;20060;-63
2023/04/13 06:07:03;;;;;;;24.23;6.78;;;;;;;34.36;31.08;98629.19;4963041;28;20070;-63
2023/04/13 06:09:33;;;;;;;22.35;6.13;;;;;;;34.35;31.60;98622.91;4964731;28;20528;-62
2023/04/13 06:12:02;;;;;;;20.90;6.80;;;;;;;34.30;26.48;98620.41;4959140;28;20442;-61
2023/04/13 06:14:33;;;;;;;19.08;5.95;;;;;;;34.11;28.80;98622.97;4945621;28;20829;-62
2023/04/13 06:17:02;;;;;;;22.08;5.78;;;;;;;33.80;29.96;98610.72;4959958;28;20047;-62
2023/04/13 06:19:32;;;;;;;23.20;6.38;;;;;;;33.86;31.90;98616.75;4935647;28;20422;-63
2023/04/13 06:22:02;;;;;;;16.88;6.15;;;;;;;34.04;27.96;98620.81;4944758;28;20145;-62
2023/04/13 06:24:36;;;;;;;21.75;6.85;;;;;;;34.13;28.84;98615.16;4945736;28;20598;-62
2023/04/13 06:27:08;;;;;;;34.00;6.85;;;;;;;34.26;30.07;98620.31;4945569;28;20130;-61
2023/04/13 06:29:39;;;;;;;15.18;5.93;;;;;;;34.41;29.81;98615.19;4944543;28;20089;-62
2023/04/13 06:32:11;;;;;;;17.75;6.47;;;;;;;34.59;27.70;98617.28;4933792;28;20542;-62
2023/04/13 06:34:43;;;;;;;22.55;6.82;;;;;;;34.65;27.18;98618.59;4948512;28;20050;-61
2023/04/13 06:37:15;;;;;;;22.70;5.55;;;;;;;34.66;24.65;98613.94;4947473;28;20055;-62
2023/04/13 06:39:48;;;;;;;22.25;6.35;;;;;;;34.76;27.37;98609.88;4947295;28;20039;-64
2023/04/13 06:42:18;;;;;;;21.48;5.80;;;;;;;34.83;26.29;98607.31;4945182;28;20074;-63
2023/04/13 06:45:23;;;;;;;19.08;5.30;;;;;;;34.98;25.81;98603.75;4907118;29;20052;-63
2023/04/13 06:47:54;;;;;;;17.02;6.05;;;;;;;35.02;26.80;98612.88;4920136;28;20042;-63
2023/04/13 06:50:24;;;;;;;17.52;8.02;;;;;;;34.89;26.58;98600.38;4945284;28;20501;-62
2023/04/13 06:52:58;;;;;;;20.17;6.40;;;;;;;34.95;26.66;98599.75;4946276;28;20054;-63
2023/04/13 06:55:29;;;;;;;19.48;5.85;;;;;;;35.21;26.57;98590.97;4946276;28;20092;-64
2023/04/13 06:57:59;;;;;;;21.95;4.90;;;;;;;35.31;25.24;98582.16;4944477;28;20043;-62
2023/04/13 07:00:29;;;;;;;22.33;5.60;;;;;;;35.27;23.26;98581.28;4941701;28;20055;-63
2023/04/13 07:03:00;;;;;;;16.70;4.80;;;;;;;35.35;23.90;98580.28;4948320;28;20050;-64
2023/04/13 07:05:31;;;;;;;16.42;4.35;;;;;;;35.34;26.58;98586.16;4947513;28;20063;-62
2023/04/13 07:08:06;;;;;;;20.90;5.75;;;;;;;35.41;22.71;98569.78;4947814;28;20051;-63
2023/04/13 07:10:38;;;;;;;17.40;4.55;;;;;;;35.39;23.32;98566.59;4960010;28;20427;-62
2023/04/13 07:13:16;;;;;;;17.83;4.65;;;;;;;35.43;26.02;98573.78;4941259;28;20047;-63
2023/04/13 07:15:49;;;;;;;19.75;5.25;;;;;;;35.47;25.74;98571.09;4947961;28;20050;-64
2023/04/13 07:18:19;;;;;;;15.57;4.70;;;;;;;35.48;25.92;98562.50;4946793;28;20137;-63
2023/04/13 07:20:49;;;;;;;12.75;4.90;;;;;;;35.01;28.19;98548.75;4962389;28;20050;-62
2023/04/13 07:23:21;;;;;;;26.30;5.43;;;;;;;34.87;26.31;98556.72;4948127;28;20043;-63
2023/04/13 07:25:51;;;;;;;24.15;4.63;;;;;;;34.92;28.10;98550.91;4949932;28;20047;-65
2023/04/13 07:28:24;;;;;;;24.33;5.22;;;;;;;35.17;26.59;98543.28;4949896;28;20121;-63
2023/04/13 07:30:57;;;;;;;19.83;4.90;;;;;;;35.29;25.55;98548.66;4948627;28;20053;-63
2023/04/13 07:33:26;;;;;;;22.48;6.25;;;;;;;35.21;26.71;98537.84;4966866;28;20051;-64
2023/04/13 07:35:56;;;;;;;17.98;5.13;;;;;;;35.10;28.06;98535.59;4968053;28;20063;-63
2023/04/13 07:38:28;;;;;;;;;;;;;;;34.99;28.29;98536.53;4951488;28;20038;-63
2023/04/13 07:40:58;;;;;;;21.50;4.90;;;;;;;35.07;25.42;98538.28;4950784;28;19926;-63
2023/04/13 07:43:31;;;;;;;11.15;4.10;;;;;;;35.03;26.91;98527.19;4949174;28;20114;-63
2023/04/13 07:46:10;;;;;;;16.23;3.90;;;;;;;34.84;26.03;98527.13;4949439;28;20358;-62
2023/04/13 07:48:41;;;;;;;11.98;4.20;;;;;;;34.65;27.02;98522.28;4950616;28;20533;-63
2023/04/13 07:51:22;;;;;;;17.95;3.72;;;;;;;34.41;28.66;98516.97;4949313;28;20066;-64
2023/04/13 07:53:53;;;;;;;15.93;4.10;;;;;;;34.49;27.53;98507.75;4946831;29;20059;-63
2023/04/13 07:56:26;;;;;;;14.88;4.50;;;;;;;34.43;26.84;98505.63;4938884;29;20043;-63
2023/04/13 07:58:57;;;;;;;10.70;3.72;;;;;;;34.32;29.57;98491.59;4946719;28;20071;-62
2023/04/13 08:01:27;;;;;;;16.05;3.85;;;;;;;34.23;28.27;98493.72;4941009;28;20443;-65
2023/04/13 08:04:01;;;;;;;15.77;4.10;;;;;;;34.15;28.48;98491.91;4947081;29;20134;-63
2023/04/13 08:06:32;;;;;;;13.43;3.72;;;;;;;34.08;28.71;98491.72;4946304;29;20691;-62
2023/04/13 08:09:02;;;;;;;19.35;5.30;;;;;;;34.12;25.71;98487.13;4946663;28;20542;-59
2023/04/13 08:11:32;;;;;;;14.65;4.15;;;;;;;34.17;25.56;98473.94;4944503;29;20043;-62
2023/04/13 08:14:08;;;;;;;10.63;4.47;;;;;;;34.17;29.00;98470.38;4946970;28;20589;-61
2023/04/13 08:16:39;;;;;;;17.05;4.30;;;;;;;34.16;29.31;98469.59;4946299;29;20047;-63
2023/04/13 08:19:10;;;;;;;16.67;5.70;;;;;;;34.19;28.69;98466.13;4926767;28;20059;-64
2023/04/13 08:21:46;;;;;;;19.90;4.10;;;;;;;34.41;23.93;98466.66;4946767;29;20051;-66
2023/04/13 08:24:16;;;;;;;12.52;3.45;;;;;;;34.73;23.81;98457.28;4960546;28;20050;-63
2023/04/13 08:26:46;;;;;;;16.88;3.85;;;;;;;34.88;23.11;98456.44;4945672;28;20054;-63
2023/04/13 08:29:15;;;;;;;12.48;4.25;;;;;;;35.06;22.56;98454.09;4945291;28;20069;-65
2023/04/13 08:31:46;;;;;;;17.88;4.10;;;;;;;35.38;22.50;98439.06;4945982;29;20047;-63
2023/04/13 08:34:17;;;;;;;10.15;3.53;;;;;;;35.30;25.59;98434.59;4947026;28;20070;-64
2023/04/13 08:36:47;;;;;;;16.02;3.80;;;;;;;35.08;24.42;98435.25;4946548;28;20039;-65
2023/04/13 08:39:16;;;;;;;16.95;3.70;;;;;;;35.22;23.18;98435.59;4945942;28;20150;-64
2023/04/13 08:41:47;;;;;;;11.10;3.30;;;;;;;35.36;21.96;98422.09;4941701;29;20043;-65
2023/04/13 08:44:20;;;;;;;21.60;4.45;;;;;;;35.28;23.72;98416.81;4945398;28;20051;-66
2023/04/13 08:46:52;;;;;;;11.15;3.40;;;;;;;35.28;23.08;98416.81;4931097;29;20129;-64
2023/04/13 08:49:28;;;;;;;21.23;3.63;;;;;;;34.99;25.45;98410.69;4939078;29;20676;-64
2023/04/13 08:52:27;;;;;;;17.60;3.97;;;;;;;34.91;23.16;98411.69;4934023;28;20046;-63
2023/04/13 08:55:01;;;;;;;13.52;3.70;;;;;;;34.89;22.85;98411.25;4946248;29;20051;-63
2023/04/13 08:57:34;;;;;;;16.45;3.47;;;;;;;34.92;24.67;98407.75;4942732;29;20130;-63
2023/04/13 09:00:10;;;;;;;17.38;3.80;;;;;;;34.62;28.14;98401.16;4956644;28;20051;-63
2023/04/13 09:02:41;;;;;;;19.02;3.42;;;;;;;34.39;26.21;98397.47;4931278;29;20053;-63
2023/04/13 09:05:36;;;;;;;13.65;3.63;;;;;;;34.25;24.00;98392.44;4945061;28;20531;-64
2023/04/13 09:08:08;;;;;;;16.17;4.13;;;;;;;34.45;25.08;98396.84;4944328;28;20051;-63
2023/04/13 09:10:39;;;;;;;17.95;3.92;;;;;;;34.27;22.43;98384.63;4942328;28;20492;-63
2023/04/13 09:13:10;;;;;;;21.73;4.10;;;;;;;34.75;22.22;98383.41;4946943;28;20039;-65
2023/04/13 09:15:41;;;;;;;17.05;4.15;;;;;;;34.67;25.17;98382.44;4942234;28;20055;-65
2023/04/13 09:18:24;;;;;;;17.00;3.40;;;;;;;34.54;25.29;98372.69;4929941;28;20047;-61
2023/04/13 09:21:00;;;;;;;11.07;3.38;;;;;;;34.17;26.59;98376.91;4961565;28;20043;-63
2023/04/13 09:23:30;;;;;;;15.88;4.95;;;;;;;34.05;24.66;98360.47;4946651;28;20065;-63
2023/04/13 09:26:09;;;;;;;14.20;3.88;;;;;;;33.99;24.91;98365.44;4946399;28;20070;-61
2023/04/13 09:28:46;;;;;;;12.02;3.63;;;;;;;33.93;25.85;98366.88;4946513;28;20077;-62
2023/04/13 09:31:20;;;;;;;11.00;4.05;;;;;;;33.95;26.66;98363.75;4946271;28;20050;-62
2023/04/13 09:33:52;;;;;;;16.80;3.60;;;;;;;33.98;23.95;98360.31;4946997;28;20050;-61
2023/04/13 09:36:21;;;;;;;8.40;3.28;;;;;;;33.96;24.21;98357.09;4946168;28;20047;-61
2023/04/13 09:38:54;;;;;;;17.77;3.97;;;;;;;34.04;24.45;98347.88;4945294;29;20063;-66
2023/04/13 09:41:45;;;;;;;17.60;3.72;;;;;;;33.87;27.20;98353.72;4946288;28;20051;-62
2023/04/13 09:44:21;;;;;;;12.65;3.03;;;;;;;33.62;27.02;98348.38;4941259;28;20051;-61
2023/04/13 09:47:01;;;;;;;18.30;4.07;;;;;;;33.36;28.01;98340.63;4934004;28;20055;-61
2023/04/13 09:49:39;;;;;;;10.07;3.70;;;;;;;33.08;29.70;98338.97;4943458;28;20049;-62
2023/04/13 09:52:21;;;;;;;12.80;4.03;;;;;;;33.03;27.10;98340.03;4938198;28;20133;-62
2023/04/13 09:54:52;;;;;;;14.40;3.65;;;;;;;33.06;26.14;98317.38;4958332;28;20697;-61
2023/04/13 09:57:25;;;;;;;14.25;3.92;;;;;;;33.27;27.81;98336.44;4956442;28;20042;-61
2023/04/13 09:59:59;;;;;;;13.38;3.70;;;;;;;33.22;28.11;98322.94;4967843;28;20057;-61
2023/04/13 10:02:39;;;;;;;14.27;3.78;;;;;;;32.85;29.11;98331.28;4951878;28;20779;-61
2023/04/13 10:05:10;;;;;;;20.95;3.95;;;;;;;32.96;28.47;98318.69;4969479;28;20050;-61
2023/04/13 10:07:45;;;;;;;10.38;4.30;;;;;;;32.68;28.88;98320.59;4978298;28;20365;-61
2023/04/13 10:10:15;;;;;;;10.93;3.83;;;;;;;32.70;27.00;98317.50;4964868;28;20125;-64
2023/04/13 10:12:52;;;;;;;12.68;2.85;;;;;;;32.64;29.01;98314.22;4963940;28;20059;-60
2023/04/13 10:15:59;;;;;;;16.33;3.35;;;;;;;32.56;30.05;98306.88;4954218;28;20051;-61
2023/04/13 10:18:58;;;;;;;11.38;2.90;;;;;;;32.54;28.48;98303.69;4968013;28;20045;-62
2023/04/13 10:21:38;;;;;;;13.90;3.15;;;;;;;32.64;28.20;98305.97;4963492;28;20785;-62
2023/04/13 10:24:11;;;;;;;8.40;3.53;;;;;;;32.56;29.53;98298.66;4948785;28;20066;-60
2023/04/13 10:26:44;;;;;;;18.23;3.80;;;;;;;32.67;28.01;98288.81;4962492;28;20047;-61
2023/04/13 10:29:15;;;;;;;13.95;3.78;;;;;;;32.64;27.78;98296.94;4978292;28;20377;-61
2023/04/13 10:31:50;;;;;;;16.88;3.53;;;;;;;32.71;25.53;98289.72;4963492;28;20129;-62
2023/04/13 10:34:26;;;;;;;13.13;3.47;;;;;;;32.69;26.96;98299.44;4964233;28;20051;-61
2023/04/13 10:37:02;;;;;;;16.45;3.67;;;;;;;32.56;28.03;98286.88;4957613;28;20071;-62
2023/04/13 10:39:34;;;;;;;10.65;2.95;;;;;;;32.30;28.63;98282.59;4949773;28;20054;-62
2023/04/13 10:42:09;;;;;;;10.23;3.87;;;;;;;32.27;26.83;98277.00;4946306;28;20414;-61
2023/04/13 10:44:49;;;;;;;12.48;3.60;;;;;;;32.50;27.94;98280.84;4965006;28;20039;-62
2023/04/13 10:47:20;;;;;;;11.95;4.13;;;;;;;32.43;27.46;98269.66;4963830;28;20059;-62
2023/04/13 10:49:51;;;;;;;12.23;3.03;;;;;;;32.67;26.39;98264.13;4961204;28;20423;-61
2023/04/13 10:52:21;;;;;;;10.00;2.90;;;;;;;32.69;27.95;98261.84;4961895;28;20053;-61
2023/04/13 10:54:51;;;;;;;15.73;3.50;;;;;;;32.43;29.44;98269.66;4958047;28;20719;-62
2023/04/13 10:57:22;;;;;;;10.73;3.63;;;;;;;32.38;28.09;98261.69;4963638;28;20065;-62
2023/04/13 10:59:55;;;;;;;19.85;3.60;;;;;;;32.23;29.69;98265.13;4968251;28;20046;-63
2023/04/13 11:02:31;;;;;;;12.38;3.42;;;;;;;32.08;29.81;98259.19;4957831;28;20066;-62
2023/04/13 11:05:02;;;;;;;11.48;3.28;;;;;;;32.35;26.69;98256.91;4973353;28;20065;-61
2023/04/13 11:07:33;;;;;;;13.95;3.83;;;;;;;32.27;28.37;98266.81;4931318;28;20070;-64
2023/04/13 11:10:03;;;;;;;15.50;4.20;;;;;;;32.35;26.39;98265.91;4975034;28;20116;-63
2023/04/13 11:12:32;;;;;;;11.48;3.88;;;;;;;32.48;25.84;98266.69;4967919;28;20051;-61
2023/04/13 11:15:02;;;;;;;15.00;4.18;;;;;;;32.49;26.07;98274.56;4967212;28;20062;-64
2023/04/13 11:17:31;;;;;;;13.85;4.05;;;;;;;32.61;26.92;98265.50;4967642;28;20055;-64
2023/04/13 11:20:01;;;;;;;12.80;3.08;;;;;;;32.90;22.91;98267.13;4968065;28;20049;-62
2023/04/13 11:22:35;;;;;;;11.30;3.55;;;;;;;32.91;26.30;98263.25;4947469;28;20771;-63
2023/04/13 11:25:07;;;;;;;12.85;3.50;;;;;;;32.77;26.69;98252.69;4958681;28;20061;-60
2023/04/13 11:27:37;;;;;;;14.07;3.83;;;;;;;32.62;27.68;98255.34;4956856;28;20047;-62
2023/04/13 11:30:09;;;;;;;20.13;4.30;;;;;;;32.50;27.20;98258.91;4966764;28;20148;-61
2023/04/13 11:32:43;;;;;;;19.85;3.55;;;;;;;32.60;26.71;98258.41;4930501;28;20051;-61
2023/04/13 11:35:14;;;;;;;11.82;3.80;;;;;;;32.48;25.85;98256.53;4966065;28;20042;-63
2023/04/13 11:37:47;;;;;;;16.35;3.55;;;;;;;32.40;25.10;98256.63;4967041;28;20051;-63
2023/04/13 11:40:24;;;;;;;12.82;3.40;;;;;;;32.46;27.21;98247.84;4964327;28;20047;-62
2023/04/13 11:42:57;;;;;;;14.27;3.80;;;;;;;32.54;24.60;98248.84;4965439;28;20046;-64
2023/04/13 11:45:29;;;;;;;18.00;3.85;;;;;;;32.63;26.93;98243.22;4945729;28;20530;-61
2023/04/13 11:47:59;;;;;;;16.43;4.00;;;;;;;32.50;27.41;98248.72;4967640;28;20606;-65
2023/04/13 11:50:29;;;;;;;15.65;4.50;;;;;;;32.30;26.99;98246.97;4961204;28;20499;-63
2023/04/13 11:52:59;;;;;;;25.00;3.92;;;;;;;32.40;27.46;98253.88;4962070;28;20069;-63